createdAt,value
2022-12-27T00:02:40.726Z,82.59
2022-12-27T00:07:43.772Z,82.92
2022-12-27T00:12:48.002Z,82.36
2022-12-27T00:17:50.939Z,82.95
2022-12-27T00:22:53.941Z,82.10
2022-12-27T00:27:58.434Z,80.98
2022-12-27T00:33:01.315Z,81.91
2022-12-27T00:38:04.942Z,82.21
2022-12-27T00:43:09.781Z,83.05
2022-12-27T00:48:13.446Z,82.16
2022-12-27T00:53:16.524Z,82.13
2022-12-27T00:58:20.782Z,81.82
2022-12-27T01:03:23.695Z,83.30
2022-12-27T01:08:26.590Z,82.05
2022-12-27T01:13:31.145Z,82.98
2022-12-27T01:18:34.790Z,82.09
2022-12-27T01:23:38.120Z,81.82
2022-12-27T01:28:42.378Z,81.69
2022-12-27T01:33:45.604Z,81.28
2022-12-27T01:38:49.186Z,80.98
2022-12-27T01:43:53.419Z,80.48
2022-12-27T01:48:56.904Z,80.61
2022-12-27T01:53:59.839Z,79.16
2022-12-27T01:59:09.366Z,79.58
2022-12-27T02:04:16.781Z,79.63
2022-12-27T02:09:26.632Z,79.07
2022-12-27T02:14:33.326Z,79.20
2022-12-27T02:19:46.469Z,78.93
2022-12-27T02:25:08.257Z,78.59
2022-12-27T02:30:13.904Z,77.99
2022-12-27T02:35:24.172Z,79.09
2022-12-27T02:40:46.329Z,79.31
2022-12-27T02:46:16.064Z,79.45
2022-12-27T02:51:55.645Z,79.97
2022-12-27T02:57:10.898Z,77.70
2022-12-27T03:02:44.757Z,79.49
2022-12-27T03:07:52.585Z,76.64
2022-12-27T03:13:25.837Z,77.25
2022-12-27T03:18:50.322Z,77.26
2022-12-27T03:24:14.474Z,75.96
2022-12-27T03:29:38.049Z,75.77
2022-12-27T03:34:48.465Z,76.83
2022-12-27T03:39:57.652Z,76.39
2022-12-27T03:45:00.611Z,76.02
2022-12-27T03:50:10.922Z,76.04
2022-12-27T03:55:14.354Z,75.84
2022-12-27T04:00:18.011Z,77.40
2022-12-27T04:05:22.449Z,76.77
2022-12-27T04:10:42.883Z,75.26
2022-12-27T04:16:03.254Z,76.22
2022-12-27T04:21:24.992Z,75.61
2022-12-27T04:26:45.259Z,75.39
2022-12-27T04:32:05.481Z,74.77
2022-12-27T04:37:11.668Z,75.59
2022-12-27T04:42:31.833Z,75.08
2022-12-27T04:47:52.006Z,75.00
2022-12-27T04:53:13.691Z,75.66
2022-12-27T04:58:17.646Z,75.85
2022-12-27T05:03:23.449Z,75.88
2022-12-27T05:08:44.971Z,75.14
2022-12-27T05:14:03.054Z,75.24
2022-12-27T05:19:07.715Z,73.77
2022-12-27T05:24:29.435Z,73.78
2022-12-27T05:29:35.994Z,73.09
2022-12-27T05:34:38.871Z,73.50
2022-12-27T05:39:43.177Z,73.15
2022-12-27T05:44:46.045Z,73.13
2022-12-27T05:49:48.950Z,73.78
2022-12-27T05:54:53.174Z,72.98
2022-12-27T05:59:56.082Z,71.13
2022-12-27T06:04:58.978Z,71.47
2022-12-27T06:10:03.431Z,72.18
2022-12-27T06:15:07.851Z,72.00
2022-12-27T06:20:11.292Z,71.79
2022-12-27T06:25:15.583Z,72.49
2022-12-27T06:30:18.689Z,72.92
2022-12-27T06:35:21.629Z,72.26
2022-12-27T06:40:25.913Z,73.39
2022-12-27T06:45:28.907Z,72.79
2022-12-27T06:50:32.177Z,73.46
2022-12-27T06:55:36.471Z,74.13
2022-12-27T07:00:39.417Z,74.23
2022-12-27T07:05:42.322Z,73.10
2022-12-27T07:10:46.721Z,73.47
2022-12-27T07:15:50.315Z,72.93
2022-12-27T07:20:53.285Z,74.00
2022-12-27T07:26:03.396Z,74.42
2022-12-27T07:31:09.157Z,74.05
2022-12-27T07:36:16.398Z,74.57
2022-12-27T07:41:22.297Z,74.23
2022-12-27T07:46:26.962Z,74.80
2022-12-27T07:51:29.965Z,74.68
2022-12-27T07:56:34.262Z,74.30
2022-12-27T08:01:57.143Z,73.91
2022-12-27T08:07:05.411Z,73.96
2022-12-27T08:12:10.521Z,74.44
2022-12-27T08:17:20.228Z,74.67
2022-12-27T08:22:24.520Z,73.86
2022-12-27T08:27:28.768Z,73.22
2022-12-27T08:32:31.713Z,73.70
2022-12-27T08:37:34.856Z,73.55
2022-12-27T08:42:39.083Z,73.23
2022-12-27T08:47:42.069Z,72.71
2022-12-27T08:52:44.934Z,73.03
2022-12-27T08:57:49.206Z,73.50
2022-12-27T09:02:52.138Z,73.04
2022-12-27T09:07:55.321Z,73.81
2022-12-27T09:12:59.540Z,73.10
2022-12-27T09:18:03.188Z,73.24
2022-12-27T09:23:06.146Z,72.77
2022-12-27T09:28:10.351Z,73.45
2022-12-27T09:33:13.243Z,74.23
2022-12-27T09:38:16.152Z,73.02
2022-12-27T09:43:27.497Z,72.39
2022-12-27T09:48:35.058Z,72.36
2022-12-27T09:53:46.144Z,71.52
2022-12-27T09:58:53.183Z,71.85
2022-12-27T10:03:56.215Z,71.60
2022-12-27T10:09:06.098Z,71.16
2022-12-27T10:14:29.324Z,70.30
2022-12-27T10:19:43.406Z,70.51
2022-12-27T10:24:51.570Z,70.11
2022-12-27T10:29:57.372Z,70.09
2022-12-27T10:35:03.567Z,69.92
2022-12-27T10:40:13.307Z,69.26
2022-12-27T10:45:32.322Z,69.25
2022-12-27T10:50:35.266Z,68.82
2022-12-27T10:55:39.443Z,68.54
2022-12-27T11:00:54.472Z,68.09
2022-12-27T11:06:02.115Z,68.25
2022-12-27T11:11:16.089Z,68.04
2022-12-27T11:16:28.854Z,66.90
2022-12-27T11:21:32.655Z,67.09
2022-12-27T11:26:42.868Z,66.96
2022-12-27T11:31:49.019Z,66.71
2022-12-27T11:36:56.118Z,66.30
2022-12-27T11:42:02.202Z,67.46
2022-12-27T11:47:13.609Z,67.24
2022-12-27T11:52:49.194Z,67.30
2022-12-27T11:58:18.768Z,67.66
2022-12-27T12:03:49.354Z,66.78
2022-12-27T12:09:22.050Z,67.49
2022-12-27T12:14:54.209Z,67.71
2022-12-27T12:20:23.828Z,67.19
2022-12-27T12:25:53.786Z,67.05
2022-12-27T12:31:12.343Z,68.20
2022-12-27T12:36:40.848Z,66.70
2022-12-27T12:42:16.341Z,67.47
2022-12-27T12:47:34.177Z,67.39
2022-12-27T12:53:01.983Z,67.47
2022-12-27T12:58:18.645Z,67.37
2022-12-27T13:03:59.332Z,67.99
2022-12-27T13:09:11.950Z,68.21
2022-12-27T13:14:29.347Z,68.09
2022-12-27T13:19:58.927Z,68.44
2022-12-27T13:25:26.066Z,67.95
2022-12-27T13:30:35.193Z,67.85
2022-12-27T13:36:06.963Z,68.22
2022-12-27T13:41:30.733Z,68.22
2022-12-27T13:46:50.507Z,68.29
2022-12-27T13:51:57.303Z,68.28
2022-12-27T13:57:19.146Z,69.00
2022-12-27T14:02:52.080Z,69.00
2022-12-27T14:08:06.208Z,68.75
2022-12-27T14:13:11.687Z,69.10
2022-12-27T14:18:30.797Z,68.35
2022-12-27T14:23:57.433Z,68.84
2022-12-27T14:29:44.160Z,69.29
2022-12-27T14:35:25.455Z,68.37
2022-12-27T14:40:53.217Z,69.04
2022-12-27T14:46:32.792Z,69.13
2022-12-27T14:52:01.636Z,69.49
2022-12-27T14:57:18.107Z,69.17
2022-12-27T15:02:37.155Z,69.33
2022-12-27T15:08:04.913Z,69.70
2022-12-27T15:13:16.619Z,68.72
2022-12-27T15:18:39.808Z,69.07
2022-12-27T15:23:52.714Z,69.77
2022-12-27T15:29:27.181Z,69.08
2022-12-27T15:34:44.974Z,69.64
2022-12-27T15:39:51.087Z,69.92
2022-12-27T15:45:04.355Z,69.44
2022-12-27T15:50:45.622Z,69.29
2022-12-27T15:56:12.268Z,68.92
2022-12-27T16:01:28.813Z,68.91
2022-12-27T16:06:55.658Z,68.96
2022-12-27T16:12:06.897Z,70.12
2022-12-27T16:17:31.434Z,69.23
2022-12-27T16:22:39.321Z,69.48
2022-12-27T16:27:44.443Z,69.70
2022-12-27T16:32:50.064Z,70.45
2022-12-27T16:37:57.203Z,71.19
2022-12-27T16:43:42.277Z,74.90
2022-12-27T16:49:04.451Z,72.36
2022-12-27T16:54:23.305Z,73.03
2022-12-27T16:59:57.673Z,74.07
2022-12-27T17:05:01.520Z,74.38
2022-12-27T17:10:42.926Z,75.81
2022-12-27T17:15:55.057Z,75.50
2022-12-27T17:21:04.772Z,76.36
2022-12-27T17:26:47.458Z,76.68
2022-12-27T17:31:58.409Z,75.77
2022-12-27T17:37:12.603Z,77.45
2022-12-27T17:42:42.036Z,77.10
2022-12-27T17:48:03.725Z,77.67
2022-12-27T17:53:36.700Z,76.99
2022-12-27T17:58:39.759Z,77.05
2022-12-27T18:03:48.388Z,77.20
2022-12-27T18:08:52.086Z,76.15
2022-12-27T18:13:58.983Z,77.78
2022-12-27T18:19:03.597Z,77.00
2022-12-27T18:24:24.703Z,77.73
2022-12-27T18:29:27.665Z,77.64
2022-12-27T18:34:38.158Z,77.45
2022-12-27T18:39:43.338Z,77.04
2022-12-27T18:44:49.311Z,77.25
2022-12-27T18:49:56.644Z,76.98
2022-12-27T18:55:14.844Z,76.80
2022-12-27T19:00:22.748Z,76.90
2022-12-27T19:05:31.222Z,75.71
2022-12-27T19:10:34.303Z,76.50
2022-12-27T19:15:41.453Z,76.87
2022-12-27T19:20:53.890Z,76.92
2022-12-27T19:26:06.752Z,76.98
2022-12-27T19:31:19.851Z,77.58
2022-12-27T19:36:27.795Z,77.24
2022-12-27T19:41:31.847Z,77.17
2022-12-27T19:46:34.830Z,76.21
2022-12-27T19:51:39.576Z,76.20
2022-12-27T19:56:42.762Z,76.60
2022-12-27T20:01:46.660Z,76.49
2022-12-27T20:06:51.092Z,75.87
2022-12-27T20:11:54.366Z,76.11
2022-12-27T20:16:57.282Z,76.51
2022-12-27T20:22:01.996Z,76.58
2022-12-27T20:27:05.111Z,77.19
2022-12-27T20:32:08.138Z,77.14
2022-12-27T20:37:12.452Z,76.60
2022-12-27T20:42:15.449Z,76.80
2022-12-27T20:47:18.456Z,77.27
2022-12-27T20:52:28.837Z,77.48
2022-12-27T20:57:34.766Z,77.85
2022-12-27T21:02:39.774Z,77.73
2022-12-27T21:07:44.177Z,77.84
2022-12-27T21:12:47.042Z,78.44
2022-12-27T21:17:49.927Z,78.76
2022-12-27T21:22:54.238Z,78.31
2022-12-27T21:27:57.154Z,78.47
2022-12-27T21:33:00.038Z,78.80
2022-12-27T21:38:04.454Z,77.46
2022-12-27T21:43:07.380Z,78.69
2022-12-27T21:48:10.290Z,78.01
2022-12-27T21:53:15.984Z,78.46
2022-12-27T21:58:18.923Z,77.80
2022-12-27T22:03:22.007Z,78.84
2022-12-27T22:08:26.407Z,77.08
2022-12-27T22:13:29.961Z,77.59
2022-12-27T22:18:34.667Z,77.37
2022-12-27T22:23:40.620Z,76.81
2022-12-27T22:28:44.299Z,77.12
2022-12-27T22:33:48.039Z,76.99
2022-12-27T22:38:53.689Z,76.14
2022-12-27T22:43:58.383Z,75.92
2022-12-27T22:49:02.407Z,74.93
2022-12-27T22:54:08.626Z,76.03
2022-12-27T22:59:12.910Z,76.82
2022-12-27T23:04:16.006Z,76.74
2022-12-27T23:09:20.298Z,76.15
2022-12-27T23:14:23.440Z,76.01
2022-12-27T23:19:26.286Z,75.81
2022-12-27T23:24:30.633Z,75.68
2022-12-27T23:29:33.613Z,74.99
2022-12-27T23:34:36.491Z,75.10
2022-12-27T23:39:41.129Z,74.51
2022-12-27T23:44:44.053Z,74.32
2022-12-27T23:49:46.930Z,74.73
2022-12-27T23:54:51.190Z,74.39
2022-12-27T23:59:55.385Z,74.30
